sensor_id;sensor_type;location;lat;lon;timestamp;P1;durP1;ratioP1;P2;durP2;ratioP2
12314;SDS011;23886;46.614;14.276;2023-05-10T00:00:04;4.90;;;4.50;;
12314;SDS011;23886;46.614;14.276;2023-05-10T00:02:32;5.07;;;4.63;;
12314;SDS011;23886;46.614;14.276;2023-05-10T00:04:59;5.30;;;4.80;;
12314;SDS011;23886;46.614;14.276;2023-05-10T00:07:28;5.03;;;4.53;;
12314;SDS011;23886;46.614;14.276;2023-05-10T00:09:55;5.33;;;4.37;;
12314;SDS011;23886;46.614;14.276;2023-05-10T00:12:22;5.10;;;4.60;;
12314;SDS011;23886;46.614;14.276;2023-05-10T00:14:49;5.00;;;4.60;;
12314;SDS011;23886;46.614;14.276;2023-05-10T00:17:16;5.03;;;4.60;;
12314;SDS011;23886;46.614;14.276;2023-05-10T00:19:43;4.73;;;4.33;;
12314;SDS011;23886;46.614;14.276;2023-05-10T00:22:10;4.87;;;4.47;;
12314;SDS011;23886;46.614;14.276;2023-05-10T00:24:38;5.50;;;4.90;;
12314;SDS011;23886;46.614;14.276;2023-05-10T00:27:05;5.50;;;5.00;;
12314;SDS011;23886;46.614;14.276;2023-05-10T00:29:32;5.73;;;5.13;;
12314;SDS011;23886;46.614;14.276;2023-05-10T00:31:59;5.03;;;4.63;;
12314;SDS011;23886;46.614;14.276;2023-05-10T00:34:26;5.63;;;5.13;;
12314;SDS011;23886;46.614;14.276;2023-05-10T00:36:53;5.10;;;4.70;;
12314;SDS011;23886;46.614;14.276;2023-05-10T00:39:21;5.40;;;4.80;;
12314;SDS011;23886;46.614;14.276;2023-05-10T00:41:49;5.27;;;4.87;;
12314;SDS011;23886;46.614;14.276;2023-05-10T00:44:16;5.37;;;4.97;;
12314;SDS011;23886;46.614;14.276;2023-05-10T00:46:43;5.50;;;5.00;;
12314;SDS011;23886;46.614;14.276;2023-05-10T00:49:10;5.67;;;5.17;;
12314;SDS011;23886;46.614;14.276;2023-05-10T00:51:38;5.50;;;5.03;;
12314;SDS011;23886;46.614;14.276;2023-05-10T00:54:07;6.20;;;5.60;;
12314;SDS011;23886;46.614;14.276;2023-05-10T00:56:35;6.43;;;4.57;;
12314;SDS011;23886;46.614;14.276;2023-05-10T00:59:04;8.20;;;5.07;;
12314;SDS011;23886;46.614;14.276;2023-05-10T01:01:31;6.63;;;5.13;;
12314;SDS011;23886;46.614;14.276;2023-05-10T01:03:58;6.13;;;5.60;;
12314;SDS011;23886;46.614;14.276;2023-05-10T01:06:25;6.47;;;5.97;;
12314;SDS011;23886;46.614;14.276;2023-05-10T01:08:53;5.80;;;5.27;;
12314;SDS011;23886;46.614;14.276;2023-05-10T01:11:21;5.80;;;5.30;;
12314;SDS011;23886;46.614;14.276;2023-05-10T01:13:52;5.70;;;5.10;;
12314;SDS011;23886;46.614;14.276;2023-05-10T01:16:23;6.40;;;5.50;;
12314;SDS011;23886;46.614;14.276;2023-05-10T01:18:50;6.10;;;5.50;;
12314;SDS011;23886;46.614;14.276;2023-05-10T01:21:21;6.47;;;5.47;;
12314;SDS011;23886;46.614;14.276;2023-05-10T01:24:03;5.40;;;4.97;;
12314;SDS011;23886;46.614;14.276;2023-05-10T01:27:05;6.77;;;5.30;;
12314;SDS011;23886;46.614;14.276;2023-05-10T01:30:05;6.00;;;5.50;;
12314;SDS011;23886;46.614;14.276;2023-05-10T01:32:48;5.40;;;5.00;;
12314;SDS011;23886;46.614;14.276;2023-05-10T01:35:22;5.87;;;5.30;;
12314;SDS011;23886;46.614;14.276;2023-05-10T01:37:56;5.37;;;4.97;;
12314;SDS011;23886;46.614;14.276;2023-05-10T01:40:30;9.97;;;5.40;;
12314;SDS011;23886;46.614;14.276;2023-05-10T01:43:03;6.27;;;5.67;;
12314;SDS011;23886;46.614;14.276;2023-05-10T01:45:36;5.90;;;5.40;;
12314;SDS011;23886;46.614;14.276;2023-05-10T01:48:10;5.87;;;5.27;;
12314;SDS011;23886;46.614;14.276;2023-05-10T01:50:39;5.73;;;5.23;;
12314;SDS011;23886;46.614;14.276;2023-05-10T01:53:10;6.47;;;5.27;;
12314;SDS011;23886;46.614;14.276;2023-05-10T01:55:40;5.93;;;5.33;;
12314;SDS011;23886;46.614;14.276;2023-05-10T01:58:13;5.80;;;5.20;;
12314;SDS011;23886;46.614;14.276;2023-05-10T02:00:43;5.30;;;4.80;;
12314;SDS011;23886;46.614;14.276;2023-05-10T02:03:12;5.50;;;5.00;;
12314;SDS011;23886;46.614;14.276;2023-05-10T02:05:42;5.83;;;5.00;;
12314;SDS011;23886;46.614;14.276;2023-05-10T02:08:10;5.50;;;5.00;;
12314;SDS011;23886;46.614;14.276;2023-05-10T02:10:39;6.97;;;5.37;;
12314;SDS011;23886;46.614;14.276;2023-05-10T02:13:08;6.03;;;5.47;;
12314;SDS011;23886;46.614;14.276;2023-05-10T02:15:37;5.50;;;5.00;;
12314;SDS011;23886;46.614;14.276;2023-05-10T02:18:06;7.17;;;5.60;;
12314;SDS011;23886;46.614;14.276;2023-05-10T02:20:36;4.83;;;4.43;;
12314;SDS011;23886;46.614;14.276;2023-05-10T02:23:04;6.10;;;5.07;;
12314;SDS011;23886;46.614;14.276;2023-05-10T02:25:33;5.73;;;5.13;;
12314;SDS011;23886;46.614;14.276;2023-05-10T02:28:02;6.20;;;5.60;;
12314;SDS011;23886;46.614;14.276;2023-05-10T02:30:31;6.07;;;5.50;;
12314;SDS011;23886;46.614;14.276;2023-05-10T02:32:59;5.80;;;5.30;;
12314;SDS011;23886;46.614;14.276;2023-05-10T02:35:28;6.90;;;5.00;;
12314;SDS011;23886;46.614;14.276;2023-05-10T02:37:57;5.70;;;5.20;;
12314;SDS011;23886;46.614;14.276;2023-05-10T02:40:25;5.57;;;5.07;;
12314;SDS011;23886;46.614;14.276;2023-05-10T02:42:54;6.20;;;5.17;;
12314;SDS011;23886;46.614;14.276;2023-05-10T02:45:24;5.67;;;5.10;;
12314;SDS011;23886;46.614;14.276;2023-05-10T02:47:54;6.83;;;5.50;;
12314;SDS011;23886;46.614;14.276;2023-05-10T02:50:21;6.00;;;5.40;;
12314;SDS011;23886;46.614;14.276;2023-05-10T02:52:52;5.27;;;4.77;;
12314;SDS011;23886;46.614;14.276;2023-05-10T02:55:28;6.47;;;5.23;;
12314;SDS011;23886;46.614;14.276;2023-05-10T02:57:59;5.93;;;5.43;;
12314;SDS011;23886;46.614;14.276;2023-05-10T03:00:27;5.70;;;5.20;;
12314;SDS011;23886;46.614;14.276;2023-05-10T03:02:54;5.67;;;5.17;;
12314;SDS011;23886;46.614;14.276;2023-05-10T03:05:21;5.63;;;5.07;;
12314;SDS011;23886;46.614;14.276;2023-05-10T03:07:48;6.00;;;5.50;;
12314;SDS011;23886;46.614;14.276;2023-05-10T03:10:16;6.97;;;5.10;;
12314;SDS011;23886;46.614;14.276;2023-05-10T03:12:52;5.77;;;5.20;;
12314;SDS011;23886;46.614;14.276;2023-05-10T03:15:28;7.20;;;5.60;;
12314;SDS011;23886;46.614;14.276;2023-05-10T03:18:01;6.10;;;4.90;;
12314;SDS011;23886;46.614;14.276;2023-05-10T03:20:35;6.63;;;5.03;;
12314;SDS011;23886;46.614;14.276;2023-05-10T03:23:10;5.60;;;5.10;;
12314;SDS011;23886;46.614;14.276;2023-05-10T03:25:39;5.87;;;5.27;;
12314;SDS011;23886;46.614;14.276;2023-05-10T03:28:11;6.63;;;4.83;;
12314;SDS011;23886;46.614;14.276;2023-05-10T03:30:38;5.33;;;4.83;;
12314;SDS011;23886;46.614;14.276;2023-05-10T03:33:06;6.73;;;5.20;;
12314;SDS011;23886;46.614;14.276;2023-05-10T03:35:34;5.67;;;5.17;;
12314;SDS011;23886;46.614;14.276;2023-05-10T03:38:01;7.17;;;5.43;;
12314;SDS011;23886;46.614;14.276;2023-05-10T03:40:28;6.20;;;5.60;;
12314;SDS011;23886;46.614;14.276;2023-05-10T03:42:57;5.40;;;4.90;;
12314;SDS011;23886;46.614;14.276;2023-05-10T03:45:25;5.63;;;5.17;;
12314;SDS011;23886;46.614;14.276;2023-05-10T03:47:52;5.27;;;4.77;;
12314;SDS011;23886;46.614;14.276;2023-05-10T03:50:20;5.50;;;5.00;;
12314;SDS011;23886;46.614;14.276;2023-05-10T03:52:47;5.67;;;5.17;;
12314;SDS011;23886;46.614;14.276;2023-05-10T03:55:14;5.13;;;4.73;;
12314;SDS011;23886;46.614;14.276;2023-05-10T03:57:41;4.80;;;4.40;;
12314;SDS011;23886;46.614;14.276;2023-05-10T04:00:09;5.23;;;4.83;;
12314;SDS011;23886;46.614;14.276;2023-05-10T04:02:38;5.43;;;4.93;;
12314;SDS011;23886;46.614;14.276;2023-05-10T04:05:05;5.30;;;4.80;;
12314;SDS011;23886;46.614;14.276;2023-05-10T04:07:32;5.93;;;5.10;;
12314;SDS011;23886;46.614;14.276;2023-05-10T04:09:59;7.97;;;5.13;;
12314;SDS011;23886;46.614;14.276;2023-05-10T04:12:26;5.30;;;4.90;;
12314;SDS011;23886;46.614;14.276;2023-05-10T04:14:53;5.90;;;4.83;;
12314;SDS011;23886;46.614;14.276;2023-05-10T04:17:20;5.40;;;4.97;;
12314;SDS011;23886;46.614;14.276;2023-05-10T04:19:48;5.23;;;4.73;;
12314;SDS011;23886;46.614;14.276;2023-05-10T04:22:18;6.50;;;5.07;;
12314;SDS011;23886;46.614;14.276;2023-05-10T04:24:45;6.27;;;5.53;;
12314;SDS011;23886;46.614;14.276;2023-05-10T04:27:12;7.03;;;5.07;;
12314;SDS011;23886;46.614;14.276;2023-05-10T04:29:39;6.10;;;5.33;;
12314;SDS011;23886;46.614;14.276;2023-05-10T04:32:06;6.00;;;4.80;;
12314;SDS011;23886;46.614;14.276;2023-05-10T04:34:35;5.63;;;5.13;;
12314;SDS011;23886;46.614;14.276;2023-05-10T04:37:04;7.27;;;5.67;;
12314;SDS011;23886;46.614;14.276;2023-05-10T04:39:32;6.20;;;5.27;;
12314;SDS011;23886;46.614;14.276;2023-05-10T04:42:00;5.17;;;4.70;;
12314;SDS011;23886;46.614;14.276;2023-05-10T04:44:27;5.30;;;4.80;;
12314;SDS011;23886;46.614;14.276;2023-05-10T04:46:55;5.40;;;5.00;;
12314;SDS011;23886;46.614;14.276;2023-05-10T04:49:22;5.70;;;5.13;;
12314;SDS011;23886;46.614;14.276;2023-05-10T04:51:49;6.00;;;5.30;;
12314;SDS011;23886;46.614;14.276;2023-05-10T04:54:17;6.03;;;5.47;;
12314;SDS011;23886;46.614;14.276;2023-05-10T04:56:44;5.60;;;5.10;;
12314;SDS011;23886;46.614;14.276;2023-05-10T04:59:11;6.37;;;5.30;;
12314;SDS011;23886;46.614;14.276;2023-05-10T05:01:38;5.80;;;4.93;;
12314;SDS011;23886;46.614;14.276;2023-05-10T05:04:05;5.67;;;5.17;;
12314;SDS011;23886;46.614;14.276;2023-05-10T05:06:32;5.47;;;4.83;;
12314;SDS011;23886;46.614;14.276;2023-05-10T05:08:59;5.97;;;5.30;;
12314;SDS011;23886;46.614;14.276;2023-05-10T05:11:28;5.73;;;5.20;;
12314;SDS011;23886;46.614;14.276;2023-05-10T05:13:55;7.60;;;5.57;;
12314;SDS011;23886;46.614;14.276;2023-05-10T05:16:24;6.50;;;5.83;;
12314;SDS011;23886;46.614;14.276;2023-05-10T05:18:51;6.50;;;5.50;;
12314;SDS011;23886;46.614;14.276;2023-05-10T05:21:18;5.80;;;5.30;;
12314;SDS011;23886;46.614;14.276;2023-05-10T05:23:47;6.40;;;5.40;;
12314;SDS011;23886;46.614;14.276;2023-05-10T05:26:14;5.80;;;5.20;;
12314;SDS011;23886;46.614;14.276;2023-05-10T05:28:42;6.17;;;5.40;;
12314;SDS011;23886;46.614;14.276;2023-05-10T05:31:09;5.50;;;5.00;;
12314;SDS011;23886;46.614;14.276;2023-05-10T05:33:36;5.27;;;4.83;;
12314;SDS011;23886;46.614;14.276;2023-05-10T05:36:04;5.37;;;4.97;;
12314;SDS011;23886;46.614;14.276;2023-05-10T05:38:32;6.67;;;5.23;;
12314;SDS011;23886;46.614;14.276;2023-05-10T05:40:59;6.10;;;5.60;;
12314;SDS011;23886;46.614;14.276;2023-05-10T05:43:26;6.37;;;5.20;;
12314;SDS011;23886;46.614;14.276;2023-05-10T05:45:54;6.07;;;5.47;;
12314;SDS011;23886;46.614;14.276;2023-05-10T05:48:22;9.43;;;5.53;;
12314;SDS011;23886;46.614;14.276;2023-05-10T05:50:49;10.03;;;5.30;;
12314;SDS011;23886;46.614;14.276;2023-05-10T05:53:20;8.07;;;5.23;;
12314;SDS011;23886;46.614;14.276;2023-05-10T05:55:50;8.10;;;5.43;;
12314;SDS011;23886;46.614;14.276;2023-05-10T05:58:19;5.40;;;4.80;;
12314;SDS011;23886;46.614;14.276;2023-05-10T06:00:46;10.87;;;5.60;;
12314;SDS011;23886;46.614;14.276;2023-05-10T06:03:14;6.83;;;5.30;;
12314;SDS011;23886;46.614;14.276;2023-05-10T06:05:41;6.53;;;5.83;;
12314;SDS011;23886;46.614;14.276;2023-05-10T06:08:08;5.83;;;5.33;;
12314;SDS011;23886;46.614;14.276;2023-05-10T06:10:35;5.70;;;5.20;;
12314;SDS011;23886;46.614;14.276;2023-05-10T06:13:02;7.80;;;5.60;;
12314;SDS011;23886;46.614;14.276;2023-05-10T06:15:29;5.77;;;5.23;;
12314;SDS011;23886;46.614;14.276;2023-05-10T06:17:57;6.07;;;5.47;;
12314;SDS011;23886;46.614;14.276;2023-05-10T06:20:26;6.83;;;5.93;;
12314;SDS011;23886;46.614;14.276;2023-05-10T06:22:53;6.07;;;5.53;;
12314;SDS011;23886;46.614;14.276;2023-05-10T06:25:20;6.13;;;5.53;;
12314;SDS011;23886;46.614;14.276;2023-05-10T06:27:47;5.87;;;5.30;;
12314;SDS011;23886;46.614;14.276;2023-05-10T06:30:14;5.80;;;5.30;;
12314;SDS011;23886;46.614;14.276;2023-05-10T06:32:41;6.13;;;5.53;;
12314;SDS011;23886;46.614;14.276;2023-05-10T06:35:10;6.10;;;5.60;;
12314;SDS011;23886;46.614;14.276;2023-05-10T06:37:38;6.43;;;5.83;;
12314;SDS011;23886;46.614;14.276;2023-05-10T06:40:06;5.80;;;5.30;;
12314;SDS011;23886;46.614;14.276;2023-05-10T06:42:34;9.77;;;5.70;;
12314;SDS011;23886;46.614;14.276;2023-05-10T06:45:01;21.80;;;6.27;;
12314;SDS011;23886;46.614;14.276;2023-05-10T06:47:28;6.57;;;5.87;;
12314;SDS011;23886;46.614;14.276;2023-05-10T06:49:55;25.33;;;7.90;;
12314;SDS011;23886;46.614;14.276;2023-05-10T06:52:22;6.83;;;6.13;;
12314;SDS011;23886;46.614;14.276;2023-05-10T06:54:50;7.40;;;5.67;;
12314;SDS011;23886;46.614;14.276;2023-05-10T06:57:17;16.63;;;7.20;;
12314;SDS011;23886;46.614;14.276;2023-05-10T06:59:45;8.53;;;5.23;;
12314;SDS011;23886;46.614;14.276;2023-05-10T07:02:12;7.33;;;5.40;;
12314;SDS011;23886;46.614;14.276;2023-05-10T07:04:40;6.87;;;5.30;;
12314;SDS011;23886;46.614;14.276;2023-05-10T07:07:06;7.50;;;5.53;;
12314;SDS011;23886;46.614;14.276;2023-05-10T07:09:34;8.07;;;6.17;;
12314;SDS011;23886;46.614;14.276;2023-05-10T07:12:03;6.67;;;5.57;;
12314;SDS011;23886;46.614;14.276;2023-05-10T07:14:30;9.80;;;5.80;;
12314;SDS011;23886;46.614;14.276;2023-05-10T07:16:57;10.07;;;5.80;;
12314;SDS011;23886;46.614;14.276;2023-05-10T07:19:24;8.97;;;6.90;;
12314;SDS011;23886;46.614;14.276;2023-05-10T07:21:51;9.50;;;6.97;;
12314;SDS011;23886;46.614;14.276;2023-05-10T07:24:18;14.80;;;9.33;;
12314;SDS011;23886;46.614;14.276;2023-05-10T07:26:45;9.17;;;7.53;;
12314;SDS011;23886;46.614;14.276;2023-05-10T07:29:13;7.30;;;5.80;;
12314;SDS011;23886;46.614;14.276;2023-05-10T07:31:41;7.13;;;5.53;;
12314;SDS011;23886;46.614;14.276;2023-05-10T07:34:08;5.67;;;5.17;;
12314;SDS011;23886;46.614;14.276;2023-05-10T07:36:35;6.40;;;5.53;;
12314;SDS011;23886;46.614;14.276;2023-05-10T07:39:02;7.37;;;5.33;;
12314;SDS011;23886;46.614;14.276;2023-05-10T07:41:30;9.27;;;5.53;;
12314;SDS011;23886;46.614;14.276;2023-05-10T07:43:57;6.43;;;5.40;;
12314;SDS011;23886;46.614;14.276;2023-05-10T07:46:26;6.43;;;5.50;;
12314;SDS011;23886;46.614;14.276;2023-05-10T07:48:53;6.50;;;5.80;;
12314;SDS011;23886;46.614;14.276;2023-05-10T07:51:20;6.80;;;6.13;;
12314;SDS011;23886;46.614;14.276;2023-05-10T07:53:47;7.20;;;5.73;;
12314;SDS011;23886;46.614;14.276;2023-05-10T07:56:21;7.13;;;5.43;;
12314;SDS011;23886;46.614;14.276;2023-05-10T07:58:50;6.47;;;5.87;;
12314;SDS011;23886;46.614;14.276;2023-05-10T08:01:17;8.43;;;6.03;;
12314;SDS011;23886;46.614;14.276;2023-05-10T08:03:45;6.00;;;5.40;;
12314;SDS011;23886;46.614;14.276;2023-05-10T08:06:12;12.17;;;6.33;;
12314;SDS011;23886;46.614;14.276;2023-05-10T08:08:40;5.47;;;4.97;;
12314;SDS011;23886;46.614;14.276;2023-05-10T08:11:07;7.10;;;5.33;;
12314;SDS011;23886;46.614;14.276;2023-05-10T08:13:34;6.00;;;5.40;;
12314;SDS011;23886;46.614;14.276;2023-05-10T08:16:01;6.00;;;4.90;;
12314;SDS011;23886;46.614;14.276;2023-05-10T08:18:28;17.63;;;6.53;;
12314;SDS011;23886;46.614;14.276;2023-05-10T08:20:57;10.00;;;5.70;;
12314;SDS011;23886;46.614;14.276;2023-05-10T08:23:24;8.03;;;4.77;;
12314;SDS011;23886;46.614;14.276;2023-05-10T08:25:51;6.53;;;4.53;;
12314;SDS011;23886;46.614;14.276;2023-05-10T08:28:17;5.43;;;4.93;;
12314;SDS011;23886;46.614;14.276;2023-05-10T08:30:44;6.17;;;4.73;;
12314;SDS011;23886;46.614;14.276;2023-05-10T08:33:11;6.80;;;4.73;;
12314;SDS011;23886;46.614;14.276;2023-05-10T08:35:38;4.83;;;4.33;;
12314;SDS011;23886;46.614;14.276;2023-05-10T08:38:07;4.93;;;4.53;;
12314;SDS011;23886;46.614;14.276;2023-05-10T08:40:35;4.27;;;3.87;;
12314;SDS011;23886;46.614;14.276;2023-05-10T08:43:04;7.73;;;4.47;;
12314;SDS011;23886;46.614;14.276;2023-05-10T08:45:32;5.13;;;4.30;;
12314;SDS011;23886;46.614;14.276;2023-05-10T08:48:02;5.80;;;4.37;;
12314;SDS011;23886;46.614;14.276;2023-05-10T08:50:33;4.83;;;4.40;;
12314;SDS011;23886;46.614;14.276;2023-05-10T08:53:03;4.67;;;4.27;;
12314;SDS011;23886;46.614;14.276;2023-05-10T08:55:33;5.33;;;4.83;;
12314;SDS011;23886;46.614;14.276;2023-05-10T08:58:01;4.97;;;4.50;;
12314;SDS011;23886;46.614;14.276;2023-05-10T09:00:29;4.87;;;4.30;;
12314;SDS011;23886;46.614;14.276;2023-05-10T09:02:56;5.10;;;4.60;;
12314;SDS011;23886;46.614;14.276;2023-05-10T09:05:24;5.77;;;4.10;;
12314;SDS011;23886;46.614;14.276;2023-05-10T09:07:51;4.10;;;3.70;;
12314;SDS011;23886;46.614;14.276;2023-05-10T09:10:19;4.87;;;4.20;;
12314;SDS011;23886;46.614;14.276;2023-05-10T09:12:48;5.70;;;4.20;;
12314;SDS011;23886;46.614;14.276;2023-05-10T09:15:16;4.77;;;4.30;;
12314;SDS011;23886;46.614;14.276;2023-05-10T09:17:44;4.73;;;4.23;;
12314;SDS011;23886;46.614;14.276;2023-05-10T09:20:12;4.77;;;4.37;;
12314;SDS011;23886;46.614;14.276;2023-05-10T09:22:39;5.27;;;4.87;;
12314;SDS011;23886;46.614;14.276;2023-05-10T09:25:06;5.07;;;4.57;;
12314;SDS011;23886;46.614;14.276;2023-05-10T09:27:36;8.13;;;5.20;;
12314;SDS011;23886;46.614;14.276;2023-05-10T09:30:07;8.63;;;4.53;;
12314;SDS011;23886;46.614;14.276;2023-05-10T09:32:38;4.60;;;4.20;;
12314;SDS011;23886;46.614;14.276;2023-05-10T09:35:06;6.27;;;4.57;;
12314;SDS011;23886;46.614;14.276;2023-05-10T09:37:38;4.67;;;4.27;;
12314;SDS011;23886;46.614;14.276;2023-05-10T09:40:07;6.47;;;4.53;;
12314;SDS011;23886;46.614;14.276;2023-05-10T09:42:37;7.17;;;4.60;;
12314;SDS011;23886;46.614;14.276;2023-05-10T09:45:04;5.00;;;4.20;;
12314;SDS011;23886;46.614;14.276;2023-05-10T09:47:33;4.63;;;4.23;;
12314;SDS011;23886;46.614;14.276;2023-05-10T09:50:01;6.03;;;4.00;;
12314;SDS011;23886;46.614;14.276;2023-05-10T09:52:29;6.30;;;4.20;;
12314;SDS011;23886;46.614;14.276;2023-05-10T09:54:57;4.53;;;4.13;;
12314;SDS011;23886;46.614;14.276;2023-05-10T09:57:24;4.57;;;4.10;;
12314;SDS011;23886;46.614;14.276;2023-05-10T09:59:52;4.37;;;3.97;;
12314;SDS011;23886;46.614;14.276;2023-05-10T10:02:21;4.17;;;3.87;;
12314;SDS011;23886;46.614;14.276;2023-05-10T10:04:55;6.30;;;4.23;;
12314;SDS011;23886;46.614;14.276;2023-05-10T10:07:22;4.40;;;4.00;;
12314;SDS011;23886;46.614;14.276;2023-05-10T10:09:51;4.40;;;3.97;;
12314;SDS011;23886;46.614;14.276;2023-05-10T10:12:19;5.90;;;4.03;;
12314;SDS011;23886;46.614;14.276;2023-05-10T10:14:46;5.23;;;4.30;;
12314;SDS011;23886;46.614;14.276;2023-05-10T10:17:14;6.50;;;4.17;;
12314;SDS011;23886;46.614;14.276;2023-05-10T10:19:43;4.50;;;4.10;;
12314;SDS011;23886;46.614;14.276;2023-05-10T10:22:11;4.40;;;3.93;;
12314;SDS011;23886;46.614;14.276;2023-05-10T10:24:38;5.00;;;3.97;;
12314;SDS011;23886;46.614;14.276;2023-05-10T10:27:12;5.97;;;4.10;;
12314;SDS011;23886;46.614;14.276;2023-05-10T10:29:49;5.07;;;4.27;;
12314;SDS011;23886;46.614;14.276;2023-05-10T10:32:26;4.80;;;4.00;;
12314;SDS011;23886;46.614;14.276;2023-05-10T10:35:00;3.77;;;3.40;;
12314;SDS011;23886;46.614;14.276;2023-05-10T10:37:41;4.33;;;3.10;;
12314;SDS011;23886;46.614;14.276;2023-05-10T10:40:23;4.70;;;3.33;;
12314;SDS011;23886;46.614;14.276;2023-05-10T10:42:51;4.10;;;3.20;;
12314;SDS011;23886;46.614;14.276;2023-05-10T10:45:19;4.10;;;3.67;;
12314;SDS011;23886;46.614;14.276;2023-05-10T10:47:47;13.53;;;4.10;;
12314;SDS011;23886;46.614;14.276;2023-05-10T10:50:16;4.20;;;2.80;;
12314;SDS011;23886;46.614;14.276;2023-05-10T10:52:43;3.70;;;3.27;;
12314;SDS011;23886;46.614;14.276;2023-05-10T10:55:11;3.77;;;3.10;;
12314;SDS011;23886;46.614;14.276;2023-05-10T10:57:42;4.00;;;3.30;;
12314;SDS011;23886;46.614;14.276;2023-05-10T11:00:20;3.37;;;3.07;;
12314;SDS011;23886;46.614;14.276;2023-05-10T11:02:56;3.37;;;3.00;;
12314;SDS011;23886;46.614;14.276;2023-05-10T11:05:35;3.30;;;3.00;;
12314;SDS011;23886;46.614;14.276;2023-05-10T11:08:07;3.60;;;3.30;;
12314;SDS011;23886;46.614;14.276;2023-05-10T11:10:52;3.30;;;3.00;;
12314;SDS011;23886;46.614;14.276;2023-05-10T11:13:32;3.20;;;2.90;;
12314;SDS011;23886;46.614;14.276;2023-05-10T11:16:09;3.20;;;2.90;;
12314;SDS011;23886;46.614;14.276;2023-05-10T11:18:51;4.20;;;3.07;;
12314;SDS011;23886;46.614;14.276;2023-05-10T11:21:21;5.27;;;3.50;;
12314;SDS011;23886;46.614;14.276;2023-05-10T11:23:49;5.60;;;3.27;;
12314;SDS011;23886;46.614;14.276;2023-05-10T11:26:17;3.03;;;2.70;;
12314;SDS011;23886;46.614;14.276;2023-05-10T11:28:48;3.00;;;2.80;;
12314;SDS011;23886;46.614;14.276;2023-05-10T11:31:15;3.20;;;2.90;;
12314;SDS011;23886;46.614;14.276;2023-05-10T11:33:43;4.90;;;3.10;;
12314;SDS011;23886;46.614;14.276;2023-05-10T11:36:11;3.30;;;3.00;;
12314;SDS011;23886;46.614;14.276;2023-05-10T11:38:39;6.07;;;2.80;;
12314;SDS011;23886;46.614;14.276;2023-05-10T11:41:07;4.20;;;2.70;;
12314;SDS011;23886;46.614;14.276;2023-05-10T11:43:36;3.47;;;3.17;;
12314;SDS011;23886;46.614;14.276;2023-05-10T11:46:04;4.37;;;3.23;;
12314;SDS011;23886;46.614;14.276;2023-05-10T11:48:32;3.47;;;3.13;;
12314;SDS011;23886;46.614;14.276;2023-05-10T11:51:00;3.40;;;3.10;;
12314;SDS011;23886;46.614;14.276;2023-05-10T11:53:27;2.70;;;2.50;;
12314;SDS011;23886;46.614;14.276;2023-05-10T11:55:58;4.03;;;2.57;;
12314;SDS011;23886;46.614;14.276;2023-05-10T11:58:29;3.80;;;2.77;;
12314;SDS011;23886;46.614;14.276;2023-05-10T12:00:57;4.00;;;3.03;;
12314;SDS011;23886;46.614;14.276;2023-05-10T12:03:24;4.10;;;3.00;;
12314;SDS011;23886;46.614;14.276;2023-05-10T12:05:52;6.43;;;3.13;;
12314;SDS011;23886;46.614;14.276;2023-05-10T12:08:20;6.40;;;3.50;;
12314;SDS011;23886;46.614;14.276;2023-05-10T12:10:48;3.10;;;2.80;;
12314;SDS011;23886;46.614;14.276;2023-05-10T12:13:17;3.53;;;3.00;;
12314;SDS011;23886;46.614;14.276;2023-05-10T12:15:45;3.03;;;2.73;;
12314;SDS011;23886;46.614;14.276;2023-05-10T12:18:13;3.27;;;2.97;;
12314;SDS011;23886;46.614;14.276;2023-05-10T12:20:41;3.03;;;2.80;;
12314;SDS011;23886;46.614;14.276;2023-05-10T12:23:08;3.27;;;2.97;;
12314;SDS011;23886;46.614;14.276;2023-05-10T12:25:36;2.67;;;2.47;;
12314;SDS011;23886;46.614;14.276;2023-05-10T12:28:04;4.20;;;2.90;;
12314;SDS011;23886;46.614;14.276;2023-05-10T12:30:34;4.00;;;2.87;;
12314;SDS011;23886;46.614;14.276;2023-05-10T12:33:02;2.90;;;2.70;;
12314;SDS011;23886;46.614;14.276;2023-05-10T12:35:43;3.80;;;2.90;;
12314;SDS011;23886;46.614;14.276;2023-05-10T12:38:26;4.73;;;3.20;;
12314;SDS011;23886;46.614;14.276;2023-05-10T12:40:56;3.60;;;3.20;;
12314;SDS011;23886;46.614;14.276;2023-05-10T12:43:24;4.33;;;2.70;;
12314;SDS011;23886;46.614;14.276;2023-05-10T12:45:52;3.13;;;2.53;;
12314;SDS011;23886;46.614;14.276;2023-05-10T12:48:19;4.20;;;3.07;;
12314;SDS011;23886;46.614;14.276;2023-05-10T12:50:46;5.77;;;2.97;;
12314;SDS011;23886;46.614;14.276;2023-05-10T12:53:13;4.03;;;2.80;;
12314;SDS011;23886;46.614;14.276;2023-05-10T12:55:41;3.20;;;2.90;;
12314;SDS011;23886;46.614;14.276;2023-05-10T12:58:08;5.23;;;3.00;;
12314;SDS011;23886;46.614;14.276;2023-05-10T13:00:35;4.53;;;3.13;;
12314;SDS011;23886;46.614;14.276;2023-05-10T13:03:04;3.17;;;2.93;;
12314;SDS011;23886;46.614;14.276;2023-05-10T13:05:31;4.00;;;2.93;;
12314;SDS011;23886;46.614;14.276;2023-05-10T13:07:58;3.90;;;2.83;;
12314;SDS011;23886;46.614;14.276;2023-05-10T13:10:25;3.23;;;2.90;;
12314;SDS011;23886;46.614;14.276;2023-05-10T13:12:53;4.20;;;3.07;;
12314;SDS011;23886;46.614;14.276;2023-05-10T13:15:20;2.80;;;2.60;;
12314;SDS011;23886;46.614;14.276;2023-05-10T13:17:47;7.10;;;3.00;;
12314;SDS011;23886;46.614;14.276;2023-05-10T13:20:15;6.57;;;3.00;;
12314;SDS011;23886;46.614;14.276;2023-05-10T13:22:42;4.97;;;2.83;;
12314;SDS011;23886;46.614;14.276;2023-05-10T13:25:09;3.30;;;3.00;;
12314;SDS011;23886;46.614;14.276;2023-05-10T13:27:37;4.13;;;2.80;;
12314;SDS011;23886;46.614;14.276;2023-05-10T13:30:04;5.23;;;3.30;;
12314;SDS011;23886;46.614;14.276;2023-05-10T13:32:32;3.53;;;3.23;;
12314;SDS011;23886;46.614;14.276;2023-05-10T13:34:59;3.53;;;3.23;;
12314;SDS011;23886;46.614;14.276;2023-05-10T13:37:29;3.33;;;3.00;;
12314;SDS011;23886;46.614;14.276;2023-05-10T13:39:56;3.03;;;2.83;;
12314;SDS011;23886;46.614;14.276;2023-05-10T13:42:23;4.10;;;3.20;;
12314;SDS011;23886;46.614;14.276;2023-05-10T13:44:50;3.97;;;3.23;;
12314;SDS011;23886;46.614;14.276;2023-05-10T13:47:17;3.50;;;3.20;;
12314;SDS011;23886;46.614;14.276;2023-05-10T13:49:46;3.73;;;3.27;;
12314;SDS011;23886;46.614;14.276;2023-05-10T13:52:13;3.80;;;3.40;;
12314;SDS011;23886;46.614;14.276;2023-05-10T13:54:41;3.63;;;3.33;;
12314;SDS011;23886;46.614;14.276;2023-05-10T13:57:08;3.93;;;3.53;;
12314;SDS011;23886;46.614;14.276;2023-05-10T13:59:37;5.10;;;3.37;;
12314;SDS011;23886;46.614;14.276;2023-05-10T14:02:04;5.90;;;3.70;;
12314;SDS011;23886;46.614;14.276;2023-05-10T14:04:32;5.37;;;3.60;;
12314;SDS011;23886;46.614;14.276;2023-05-10T14:07:00;3.80;;;3.50;;
12314;SDS011;23886;46.614;14.276;2023-05-10T14:09:27;4.67;;;3.93;;
12314;SDS011;23886;46.614;14.276;2023-05-10T14:11:56;3.90;;;3.60;;
12314;SDS011;23886;46.614;14.276;2023-05-10T14:14:23;3.93;;;3.63;;
12314;SDS011;23886;46.614;14.276;2023-05-10T14:16:51;8.80;;;3.90;;
12314;SDS011;23886;46.614;14.276;2023-05-10T14:19:18;4.10;;;3.67;;
12314;SDS011;23886;46.614;14.276;2023-05-10T14:21:45;4.03;;;3.60;;
12314;SDS011;23886;46.614;14.276;2023-05-10T14:24:11;3.83;;;3.53;;
12314;SDS011;23886;46.614;14.276;2023-05-10T14:26:38;3.80;;;3.50;;
12314;SDS011;23886;46.614;14.276;2023-05-10T14:29:07;4.53;;;3.17;;
12314;SDS011;23886;46.614;14.276;2023-05-10T14:31:34;3.77;;;3.47;;
12314;SDS011;23886;46.614;14.276;2023-05-10T14:34:01;4.23;;;3.83;;
12314;SDS011;23886;46.614;14.276;2023-05-10T14:36:28;4.50;;;4.10;;
12314;SDS011;23886;46.614;14.276;2023-05-10T14:38:55;3.83;;;3.53;;
12314;SDS011;23886;46.614;14.276;2023-05-10T14:41:22;4.67;;;3.70;;